Time;durP1;ratioP1;P1;durP2;ratioP2;P2;SDS_P1;SDS_P2;PMS_P1;PMS_P2;Temp;Humidity;BMP_temperature;BMP_pressure;BME280_temperature;BME280_humidity;BME280_pressure;Samples;Min_cycle;Max_cycle;Signal;HPM_P1;HPM_P2
2024/01/29 00:01:23;;;;;;;21.60;12.20;;;;;;;-3.65;79.98;103464.42;107484;1254;97807;-65
2024/01/29 00:03:52;;;;;;;23.70;13.80;;;;;;;-3.61;79.87;103466.95;107634;1256;97744;-65
2024/01/29 00:06:20;;;;;;;25.00;13.20;;;;;;;-3.53;79.88;103465.63;107532;1251;112395;-66
2024/01/29 00:08:52;;;;;;;26.40;13.00;;;;;;;-3.46;79.78;103470.30;107521;1251;108320;-67
2024/01/29 00:11:21;;;;;;;21.90;12.30;;;;;;;-3.40;79.68;103471.61;107549;1254;107998;-67
2024/01/29 00:13:49;;;;;;;27.40;14.10;;;;;;;-3.33;79.57;103473.09;107501;1254;97834;-66
2024/01/29 00:16:18;;;;;;;24.00;12.60;;;;;;;-3.26;79.61;103474.77;107546;1251;97824;-66
2024/01/29 00:18:46;;;;;;;21.90;12.90;;;;;;;-3.17;79.70;103474.36;107509;1254;111410;-67
2024/01/29 00:21:15;;;;;;;23.00;13.00;;;;;;;-3.09;79.69;103473.05;107544;1254;108369;-65
2024/01/29 00:23:43;;;;;;;23.10;12.50;;;;;;;-3.00;79.68;103479.48;107600;1253;108068;-66
2024/01/29 00:26:12;;;;;;;21.30;12.70;;;;;;;-2.91;79.73;103482.22;107513;1254;98492;-67
2024/01/29 00:28:40;;;;;;;23.40;12.30;;;;;;;-2.83;79.44;103482.48;107522;1254;97727;-67
2024/01/29 00:31:08;;;;;;;26.60;12.60;;;;;;;-2.76;79.31;103482.73;107657;1251;111236;-67
2024/01/29 00:33:36;;;;;;;19.90;11.60;;;;;;;-2.68;79.44;103485.45;107582;1256;107903;-67
2024/01/29 00:36:05;;;;;;;23.80;12.90;;;;;;;-2.63;79.32;103489.20;107549;1251;108772;-67
2024/01/29 00:38:34;;;;;;;20.60;11.20;;;;;;;-2.58;79.19;103491.02;107542;1251;97839;-66
2024/01/29 00:41:03;;;;;;;19.70;11.40;;;;;;;-2.55;78.84;103483.48;107611;1251;98480;-66
2024/01/29 00:43:32;;;;;;;19.20;10.50;;;;;;;-2.52;78.62;103481.06;107566;1251;111279;-68
2024/01/29 00:46:01;;;;;;;17.20;10.60;;;;;;;-2.50;78.62;103474.04;107628;1256;108286;-65
2024/01/29 00:48:29;;;;;;;18.70;10.90;;;;;;;-2.49;78.50;103470.18;107550;1254;107651;-67
2024/01/29 00:50:58;;;;;;;17.90;10.40;;;;;;;-2.47;78.06;103468.61;107535;1254;97817;-66
2024/01/29 00:53:26;;;;;;;17.70;10.00;;;;;;;-2.45;78.38;103466.88;107588;1251;98474;-66
2024/01/29 00:55:54;;;;;;;20.20;10.70;;;;;;;-2.42;78.41;103475.52;107581;1251;111892;-67
2024/01/29 00:58:24;;;;;;;16.40;9.70;;;;;;;-2.43;78.23;103477.09;107613;1251;108023;-66
2024/01/29 01:00:52;;;;;;;19.10;10.30;;;;;;;-2.45;77.96;103481.13;107592;1251;107432;-68
2024/01/29 01:03:21;;;;;;;18.60;10.20;;;;;;;-2.45;78.05;103478.48;107556;1257;97835;-66
2024/01/29 01:05:49;;;;;;;20.60;12.00;;;;;;;-2.45;77.63;103484.46;107624;1251;97834;-66
2024/01/29 01:08:18;;;;;;;16.60;10.20;;;;;;;-2.46;77.64;103484.98;107632;1254;112040;-66
2024/01/29 01:10:46;;;;;;;18.10;10.20;;;;;;;-2.45;77.46;103487.96;107647;1251;107327;-66
2024/01/29 01:13:15;;;;;;;22.60;11.60;;;;;;;-2.46;77.46;103482.49;107576;1251;106742;-66
2024/01/29 01:15:44;;;;;;;16.60;10.30;;;;;;;-2.47;77.21;103485.13;107558;1251;97879;-65
2024/01/29 01:18:13;;;;;;;18.10;10.80;;;;;;;-2.47;77.14;103488.48;107575;1251;97716;-67
2024/01/29 01:20:41;;;;;;;18.20;9.20;;;;;;;-2.56;76.37;103489.62;107642;1251;111776;-66
2024/01/29 01:23:09;;;;;;;17.60;10.30;;;;;;;-2.66;76.23;103493.73;107582;1251;108017;-66
2024/01/29 01:25:38;;;;;;;17.20;10.90;;;;;;;-2.78;75.90;103499.91;107556;1251;108236;-66
2024/01/29 01:28:07;;;;;;;19.80;10.80;;;;;;;-2.95;75.94;103502.73;107609;1254;97848;-66
2024/01/29 01:30:36;;;;;;;17.60;10.00;;;;;;;-3.06;76.05;103509.08;107578;1254;98328;-66
2024/01/29 01:33:04;;;;;;;21.00;11.30;;;;;;;-3.14;76.36;103517.59;107599;1254;111762;-66
2024/01/29 01:35:32;;;;;;;20.90;11.10;;;;;;;-3.19;76.45;103520.84;107579;1251;107340;-67
2024/01/29 01:38:00;;;;;;;20.30;11.50;;;;;;;-3.21;76.76;103520.82;107497;1254;108590;-66
2024/01/29 01:40:29;;;;;;;20.30;12.40;;;;;;;-3.22;76.81;103515.73;107555;1251;97954;-66
2024/01/29 01:42:57;;;;;;;19.10;10.90;;;;;;;-3.24;76.95;103518.16;107573;1251;97825;-67
2024/01/29 01:45:28;;;;;;;20.60;12.00;;;;;;;-3.27;76.91;103518.12;107593;1251;111462;-67
2024/01/29 01:47:57;;;;;;;22.80;12.10;;;;;;;-3.32;77.03;103513.65;107574;1251;108049;-67
2024/01/29 01:50:25;;;;;;;18.20;11.10;;;;;;;-3.30;77.02;103514.03;107619;1251;108193;-67
2024/01/29 01:52:54;;;;;;;21.40;11.90;;;;;;;-3.28;77.26;103515.64;107545;1251;97902;-65
2024/01/29 01:55:22;;;;;;;20.50;11.60;;;;;;;-3.29;77.12;103511.41;107593;1254;97937;-67
2024/01/29 01:57:51;;;;;;;18.90;10.90;;;;;;;-3.32;77.27;103507.70;107569;1251;111729;-68
2024/01/29 02:00:20;;;;;;;19.20;10.30;;;;;;;-3.32;77.31;103511.71;107536;1251;107356;-67
2024/01/29 02:02:49;;;;;;;16.10;9.70;;;;;;;-3.29;77.43;103510.36;107545;1254;107671;-66
2024/01/29 02:05:17;;;;;;;18.30;10.90;;;;;;;-3.26;77.75;103507.25;107524;1251;97840;-66
2024/01/29 02:07:45;;;;;;;20.60;11.50;;;;;;;-3.25;77.66;103501.99;107536;1250;98311;-66
2024/01/29 02:10:14;;;;;;;16.10;10.00;;;;;;;-3.22;77.78;103502.21;107585;1251;112223;-67
2024/01/29 02:12:42;;;;;;;20.90;11.70;;;;;;;-3.18;77.97;103498.21;107578;1251;108006;-65
2024/01/29 02:15:11;;;;;;;17.40;10.50;;;;;;;-3.17;77.65;103496.30;107584;1251;108578;-66
2024/01/29 02:17:39;;;;;;;22.50;12.20;;;;;;;-3.19;77.61;103501.89;107583;1251;97915;-65
2024/01/29 02:20:08;;;;;;;19.60;10.90;;;;;;;-3.20;77.82;103500.83;107540;1251;97917;-64
2024/01/29 02:22:46;;;;;;;21.00;11.70;;;;;;;-3.22;77.99;103511.33;107603;1251;110995;-67
2024/01/29 02:25:14;;;;;;;20.20;11.50;;;;;;;-3.22;78.19;103515.20;107592;1256;108483;-67
2024/01/29 02:27:42;;;;;;;17.50;10.50;;;;;;;-3.21;78.12;103513.63;107550;1251;107474;-64
2024/01/29 02:30:12;;;;;;;18.80;11.00;;;;;;;-3.21;78.04;103515.20;107534;1254;97959;-64
2024/01/29 02:32:40;;;;;;;18.90;11.10;;;;;;;-3.16;78.09;103515.45;107571;1251;98373;-64
2024/01/29 02:35:09;;;;;;;22.00;11.30;;;;;;;-3.08;78.14;103517.84;107421;1251;111848;-64
2024/01/29 02:37:37;;;;;;;19.90;10.00;;;;;;;-3.02;78.23;103520.90;107493;1251;108688;-65
2024/01/29 02:40:07;;;;;;;21.00;9.90;;;;;;;-3.00;78.12;103511.95;107434;1254;108187;-64
2024/01/29 02:42:36;;;;;;;18.90;11.20;;;;;;;-2.97;78.11;103512.35;107588;1251;97838;-65
2024/01/29 02:45:05;;;;;;;21.90;11.10;;;;;;;-2.91;78.22;103511.36;107589;1251;97712;-65
2024/01/29 02:47:33;;;;;;;22.10;11.00;;;;;;;-2.91;77.92;103506.80;107598;1251;111226;-65
2024/01/29 02:50:02;;;;;;;16.20;9.50;;;;;;;-2.89;77.96;103507.17;107515;1251;108518;-64
2024/01/29 02:52:30;;;;;;;18.30;10.50;;;;;;;-2.86;77.93;103503.52;107442;1251;107152;-64
2024/01/29 02:54:58;;;;;;;18.30;10.40;;;;;;;-2.85;77.83;103502.67;107578;1251;98271;-64
2024/01/29 02:57:26;;;;;;;18.00;10.20;;;;;;;-2.88;77.64;103505.26;107455;1251;97831;-64
2024/01/29 02:59:55;;;;;;;18.10;11.00;;;;;;;-2.93;77.66;103505.73;107437;1251;111619;-64
2024/01/29 03:02:23;;;;;;;17.80;10.60;;;;;;;-2.93;77.67;103504.85;107452;1251;107758;-66
2024/01/29 03:04:52;;;;;;;15.40;9.60;;;;;;;-2.96;77.36;103501.64;107448;1254;108508;-64
2024/01/29 03:07:20;;;;;;;16.70;10.50;;;;;;;-3.05;77.40;103505.05;107451;1251;97950;-65
2024/01/29 03:09:48;;;;;;;18.20;10.90;;;;;;;-3.15;77.52;103507.55;107506;1251;99598;-64
2024/01/29 03:12:17;;;;;;;17.90;10.50;;;;;;;-3.25;77.72;103507.25;107464;1251;111836;-64
2024/01/29 03:14:45;;;;;;;19.90;10.60;;;;;;;-3.32;77.90;103510.85;107538;1251;108436;-63
2024/01/29 03:17:14;;;;;;;22.20;10.50;;;;;;;-3.35;78.15;103516.06;107464;1251;107757;-63
2024/01/29 03:19:42;;;;;;;25.80;12.30;;;;;;;-3.34;78.37;103518.04;107504;1251;97939;-64
2024/01/29 03:22:11;;;;;;;23.90;11.80;;;;;;;-3.27;78.41;103518.11;107517;1251;98363;-64
2024/01/29 03:24:39;;;;;;;26.00;12.40;;;;;;;-3.20;78.66;103521.71;107488;1251;111277;-65
2024/01/29 03:27:08;;;;;;;18.60;11.10;;;;;;;-3.11;78.75;103519.90;107501;1251;108512;-65
2024/01/29 03:29:36;;;;;;;26.90;12.30;;;;;;;-3.04;78.95;103518.41;107590;1251;108126;-65
2024/01/29 03:32:05;;;;;;;19.80;11.10;;;;;;;-2.99;78.66;103515.66;107482;1251;97905;-65
2024/01/29 03:34:33;;;;;;;18.70;11.50;;;;;;;-2.98;78.26;103519.02;107562;1251;98401;-64
2024/01/29 03:37:02;;;;;;;21.50;11.20;;;;;;;-3.01;78.00;103513.17;107594;1251;112160;-66
2024/01/29 03:39:31;;;;;;;22.00;11.60;;;;;;;-3.06;77.75;103519.61;107505;1250;107475;-63
2024/01/29 03:41:59;;;;;;;17.50;9.90;;;;;;;-3.11;77.44;103521.12;107402;1251;108201;-63
2024/01/29 03:44:27;;;;;;;18.20;10.90;;;;;;;-3.20;77.37;103521.71;107510;1251;97828;-64
2024/01/29 03:46:55;;;;;;;27.70;12.70;;;;;;;-3.25;77.58;103520.59;107505;1251;97835;-65
2024/01/29 03:49:24;;;;;;;20.50;11.60;;;;;;;-3.26;77.67;103520.56;107466;1251;110823;-65
2024/01/29 03:51:52;;;;;;;19.20;10.40;;;;;;;-3.27;77.43;103526.88;107514;1251;108041;-65
2024/01/29 03:54:20;;;;;;;16.70;9.60;;;;;;;-3.28;77.46;103529.86;107429;1251;108385;-65
2024/01/29 03:56:49;;;;;;;19.00;10.20;;;;;;;-3.31;77.29;103528.23;107498;1251;97809;-64
2024/01/29 03:59:17;;;;;;;21.50;11.70;;;;;;;-3.32;77.21;103531.91;107649;1251;98313;-64
2024/01/29 04:01:46;;;;;;;20.30;11.40;;;;;;;-3.32;77.44;103531.38;107528;1251;110783;-64
2024/01/29 04:04:15;;;;;;;17.70;10.10;;;;;;;-3.32;77.53;103533.65;107467;1251;108306;-64
2024/01/29 04:06:46;;;;;;;16.80;10.00;;;;;;;-3.32;77.40;103538.92;107481;1254;106854;-64
2024/01/29 04:09:20;;;;;;;19.10;10.90;;;;;;;-3.33;77.33;103540.67;107466;1251;97838;-64
2024/01/29 04:11:53;;;;;;;21.90;11.70;;;;;;;-3.35;77.05;103547.30;107504;1251;99539;-64
2024/01/29 04:14:22;;;;;;;22.10;11.40;;;;;;;-3.37;77.37;103545.02;107534;1251;111225;-65
2024/01/29 04:16:51;;;;;;;31.90;10.70;;;;;;;-3.39;77.23;103547.08;107549;1250;107876;-66
2024/01/29 04:19:19;;;;;;;18.90;11.00;;;;;;;-3.48;76.95;103545.00;107481;1254;107333;-67
2024/01/29 04:21:48;;;;;;;21.40;11.40;;;;;;;-3.58;76.77;103539.59;107613;1251;97803;-64
2024/01/29 04:24:16;;;;;;;19.10;10.70;;;;;;;-3.71;76.87;103539.23;107492;1251;97730;-63
2024/01/29 04:26:45;;;;;;;16.20;9.50;;;;;;;-3.86;77.03;103550.22;107491;1254;112383;-65
2024/01/29 04:29:13;;;;;;;19.90;9.70;;;;;;;-3.89;77.30;103549.63;107511;1251;108310;-64
2024/01/29 04:31:41;;;;;;;18.40;10.70;;;;;;;-3.91;77.29;103558.72;107443;1254;108557;-64
2024/01/29 04:34:10;;;;;;;19.30;11.10;;;;;;;-3.96;77.49;103553.91;107453;1251;97922;-64
2024/01/29 04:36:38;;;;;;;17.70;10.20;;;;;;;-4.04;77.25;103557.09;107495;1251;97917;-64
2024/01/29 04:39:06;;;;;;;24.00;13.80;;;;;;;-4.09;77.45;103556.48;107478;1251;112099;-65
2024/01/29 04:41:35;;;;;;;19.10;11.50;;;;;;;-4.06;77.63;103556.89;107554;1251;108002;-65
2024/01/29 04:44:03;;;;;;;27.20;13.00;;;;;;;-4.00;78.01;103559.98;107527;1254;106971;-66
2024/01/29 04:46:32;;;;;;;23.20;12.30;;;;;;;-3.98;77.83;103565.98;107506;1254;97915;-64
2024/01/29 04:49:00;;;;;;;25.00;12.80;;;;;;;-3.98;77.54;103565.09;107551;1251;98478;-63
2024/01/29 04:51:28;;;;;;;25.00;12.40;;;;;;;-3.95;77.77;103568.30;107582;1251;112162;-65
2024/01/29 04:53:57;;;;;;;41.20;24.30;;;;;;;-3.93;77.85;103573.59;107499;1251;109496;-66
2024/01/29 04:56:25;;;;;;;36.30;19.40;;;;;;;-3.92;77.84;103574.66;107516;1251;106995;-64
2024/01/29 04:58:54;;;;;;;25.80;14.90;;;;;;;-3.88;78.12;103574.38;107529;1254;98004;-65
2024/01/29 05:01:22;;;;;;;24.00;14.00;;;;;;;-3.84;78.03;103579.34;107562;1251;97818;-65
2024/01/29 05:03:51;;;;;;;17.60;10.70;;;;;;;-3.83;77.66;103583.57;107594;1251;110157;-64
2024/01/29 05:06:20;;;;;;;20.30;11.20;;;;;;;-3.83;77.74;103583.41;107516;1251;108327;-65
2024/01/29 05:08:49;;;;;;;23.40;12.50;;;;;;;-3.84;77.43;103583.20;107512;1251;108217;-63
2024/01/29 05:11:17;;;;;;;23.20;11.80;;;;;;;-3.87;77.49;103587.55;107548;1254;97834;-64
2024/01/29 05:13:45;;;;;;;20.80;12.30;;;;;;;-3.86;77.52;103584.23;107563;1251;97907;-64
2024/01/29 05:16:15;;;;;;;18.40;10.70;;;;;;;-3.88;77.47;103581.73;107612;1250;110773;-64
2024/01/29 05:18:43;;;;;;;21.30;10.50;;;;;;;-3.90;77.57;103584.70;107592;1251;108574;-64
2024/01/29 05:21:12;;;;;;;22.40;12.40;;;;;;;-3.90;77.69;103587.67;107551;1251;108225;-65
2024/01/29 05:23:41;;;;;;;24.10;13.20;;;;;;;-3.92;77.59;103583.96;107616;1251;97790;-65
2024/01/29 05:26:10;;;;;;;25.70;13.80;;;;;;;-3.95;77.38;103580.22;107576;1251;97814;-67
2024/01/29 05:28:38;;;;;;;22.70;13.60;;;;;;;-4.01;77.24;103579.94;107590;1251;111266;-64
2024/01/29 05:31:07;;;;;;;21.50;12.60;;;;;;;-4.04;77.23;103579.17;107559;1254;108346;-64
2024/01/29 05:33:35;;;;;;;22.50;12.70;;;;;;;-4.06;77.23;103583.86;107585;1251;108523;-64
2024/01/29 05:36:04;;;;;;;19.90;11.60;;;;;;;-4.05;77.32;103587.76;107576;1251;97999;-64
2024/01/29 05:38:32;;;;;;;20.90;12.70;;;;;;;-4.04;77.32;103586.02;107594;1251;97848;-64
2024/01/29 05:41:01;;;;;;;22.40;12.70;;;;;;;-4.04;77.06;103587.95;107614;1251;111670;-64
2024/01/29 05:43:29;;;;;;;29.20;14.70;;;;;;;-4.03;77.33;103589.52;107624;1251;108487;-64
2024/01/29 05:45:57;;;;;;;25.00;14.60;;;;;;;-4.00;77.53;103595.21;107547;1251;108262;-64
2024/01/29 05:48:26;;;;;;;23.90;14.50;;;;;;;-3.98;77.40;103596.29;107536;1251;97837;-66
2024/01/29 05:50:55;;;;;;;25.40;14.30;;;;;;;-3.99;77.21;103593.99;107607;1252;97834;-67
2024/01/29 05:53:24;;;;;;;26.50;14.20;;;;;;;-4.00;77.30;103596.27;107549;1254;110995;-64
2024/01/29 05:55:53;;;;;;;26.30;13.50;;;;;;;-4.11;76.68;103597.11;107587;1251;108164;-64
2024/01/29 05:58:21;;;;;;;25.80;13.30;;;;;;;-4.37;76.76;103606.09;107530;1251;108155;-64
2024/01/29 06:00:50;;;;;;;23.10;13.30;;;;;;;-4.61;77.53;103612.61;107548;1254;97864;-64
2024/01/29 06:03:19;;;;;;;28.60;14.30;;;;;;;-4.77;77.53;103619.27;107593;1251;97825;-65
2024/01/29 06:05:47;;;;;;;26.70;13.40;;;;;;;-4.87;77.64;103622.58;107563;1251;110522;-65
2024/01/29 06:08:15;;;;;;;28.50;15.20;;;;;;;-4.90;78.20;103628.11;107578;1251;107439;-65
2024/01/29 06:10:44;;;;;;;23.00;13.20;;;;;;;-4.95;78.67;103635.02;107449;1251;107934;-65
2024/01/29 06:13:12;;;;;;;27.60;14.70;;;;;;;-5.01;79.62;103633.64;107472;1254;97848;-64
2024/01/29 06:15:40;;;;;;;28.40;13.80;;;;;;;-5.08;80.29;103630.69;107450;1251;97751;-65
2024/01/29 06:18:09;;;;;;;28.90;15.10;;;;;;;-5.09;80.02;103632.06;107472;1251;111852;-65
2024/01/29 06:20:37;;;;;;;28.30;15.80;;;;;;;-5.04;80.18;103635.52;107490;1251;107447;-65
2024/01/29 06:23:09;;;;;;;31.70;17.00;;;;;;;-4.96;80.32;103643.20;107447;1251;108240;-64
2024/01/29 06:25:38;;;;;;;28.60;15.40;;;;;;;-4.85;80.31;103647.31;107480;1251;97832;-65
2024/01/29 06:28:07;;;;;;;29.50;15.70;;;;;;;-4.74;80.12;103657.34;107459;1251;97704;-66
2024/01/29 06:30:36;;;;;;;126.80;19.50;;;;;;;-4.59;80.17;103664.66;107585;1256;111546;-65
2024/01/29 06:33:04;;;;;;;36.20;18.60;;;;;;;-4.44;80.38;103667.10;107465;1251;108589;-66
2024/01/29 06:35:33;;;;;;;42.80;20.60;;;;;;;-4.31;80.34;103660.55;107568;1256;108152;-67
2024/01/29 06:38:03;;;;;;;34.00;18.30;;;;;;;-4.17;80.25;103657.65;107411;1251;97841;-67
2024/01/29 06:40:31;;;;;;;37.80;18.90;;;;;;;-4.08;79.94;103655.89;107586;1251;97704;-66
2024/01/29 06:42:59;;;;;;;30.10;16.90;;;;;;;-3.99;79.68;103668.17;107570;1250;112622;-66
2024/01/29 06:45:28;;;;;;;31.10;16.80;;;;;;;-3.86;80.14;103669.98;107559;1251;108648;-66
2024/01/29 06:47:57;;;;;;;31.30;16.60;;;;;;;-3.71;80.31;103671.83;107449;1254;108331;-65
2024/01/29 06:50:26;;;;;;;31.20;16.70;;;;;;;-3.58;80.23;103673.30;107471;1251;97908;-65
2024/01/29 06:52:54;;;;;;;29.40;15.60;;;;;;;-3.45;79.90;103677.02;107663;1254;97828;-65
2024/01/29 06:55:23;;;;;;;28.80;16.60;;;;;;;-3.33;79.88;103680.02;107628;1251;111105;-65
2024/01/29 06:57:51;;;;;;;29.30;16.70;;;;;;;-3.27;79.32;103682.58;107535;1251;108468;-64
2024/01/29 07:00:20;;;;;;;32.90;17.60;;;;;;;-3.26;78.73;103679.41;107511;1251;107978;-64
2024/01/29 07:02:48;;;;;;;40.20;19.70;;;;;;;-3.26;78.95;103675.56;107525;1251;97764;-64
2024/01/29 07:05:17;;;;;;;38.20;17.10;;;;;;;-3.20;78.62;103674.44;107520;1251;97859;-64
2024/01/29 07:07:45;;;;;;;33.30;18.50;;;;;;;-3.13;78.36;103673.48;107503;1251;111554;-64
2024/01/29 07:10:14;;;;;;;33.50;17.90;;;;;;;-3.11;77.69;103681.42;107540;1251;107987;-65
2024/01/29 07:12:43;;;;;;;30.60;17.50;;;;;;;-3.13;77.44;103683.85;107497;1250;108883;-64
2024/01/29 07:15:13;;;;;;;31.80;17.80;;;;;;;-3.20;77.00;103686.55;107520;1254;97841;-63
2024/01/29 07:17:41;;;;;;;32.30;18.60;;;;;;;-3.34;76.69;103685.45;107661;1254;98347;-65
2024/01/29 07:20:11;;;;;;;30.10;16.80;;;;;;;-3.39;77.16;103688.00;107607;1251;112220;-64
2024/01/29 07:22:39;;;;;;;30.90;16.60;;;;;;;-3.32;77.38;103689.17;107625;1251;107388;-65
2024/01/29 07:25:08;;;;;;;29.00;17.20;;;;;;;-3.23;76.97;103696.85;107439;1257;108827;-65
2024/01/29 07:27:36;;;;;;;31.80;17.30;;;;;;;-3.13;77.23;103700.00;107550;1251;97834;-64
2024/01/29 07:30:06;;;;;;;34.10;17.70;;;;;;;-3.02;77.14;103696.84;107501;1251;98379;-65
2024/01/29 07:32:34;;;;;;;34.10;19.20;;;;;;;-2.94;76.94;103699.06;107542;1250;110595;-66
2024/01/29 07:35:04;;;;;;;32.40;18.40;;;;;;;-2.90;76.67;103700.35;107535;1251;107761;-65
2024/01/29 07:37:33;;;;;;;42.80;17.30;;;;;;;-2.87;76.63;103696.53;107513;1251;107590;-64
2024/01/29 07:40:03;;;;;;;31.30;17.60;;;;;;;-2.83;76.65;103693.27;107501;1254;97921;-65
2024/01/29 07:42:31;;;;;;;31.10;17.90;;;;;;;-2.72;76.70;103691.13;107506;1251;97800;-63
2024/01/29 07:45:00;;;;;;;34.20;20.20;;;;;;;-2.68;76.18;103694.88;107484;1251;111284;-64
2024/01/29 07:47:28;;;;;;;34.60;20.10;;;;;;;-2.62;76.23;103696.73;107479;1251;107655;-64
2024/01/29 07:49:56;;;;;;;32.80;17.10;;;;;;;-2.52;76.12;103698.79;107526;1254;107452;-65
2024/01/29 07:52:25;;;;;;;31.30;17.00;;;;;;;-2.35;76.46;103694.95;107515;1251;97831;-65
2024/01/29 07:54:53;;;;;;;32.40;17.80;;;;;;;-2.24;76.32;103699.50;107534;1251;97706;-66
2024/01/29 07:57:22;;;;;;;30.70;17.40;;;;;;;-2.12;76.58;103699.29;107494;1251;112538;-65
2024/01/29 07:59:50;;;;;;;33.20;18.70;;;;;;;-2.04;76.01;103690.94;107545;1250;107732;-64
2024/01/29 08:02:18;;;;;;;36.30;18.40;;;;;;;-2.01;75.84;103689.21;107454;1251;108065;-64
2024/01/29 08:04:47;;;;;;;31.70;16.80;;;;;;;-2.01;75.05;103694.66;107521;1254;97691;-64
2024/01/29 08:07:15;;;;;;;30.10;15.80;;;;;;;-2.03;75.06;103694.82;107544;1251;97736;-64
2024/01/29 08:09:45;;;;;;;28.40;16.50;;;;;;;-1.98;75.02;103690.65;107592;1251;110190;-67
2024/01/29 08:12:14;;;;;;;30.80;17.60;;;;;;;-1.83;75.35;103684.31;107567;1250;108108;-65
2024/01/29 08:14:42;;;;;;;32.80;19.30;;;;;;;-1.75;75.20;103682.45;107531;1254;107716;-63
2024/01/29 08:17:10;;;;;;;34.00;17.90;;;;;;;-1.66;75.25;103679.73;107587;1251;97993;-64
2024/01/29 08:19:39;;;;;;;34.10;18.00;;;;;;;-1.60;74.58;103685.94;107502;1251;97899;-64
2024/01/29 08:22:08;;;;;;;33.50;18.20;;;;;;;-1.50;74.46;103690.25;107508;1251;111319;-65
2024/01/29 08:24:38;;;;;;;37.80;19.30;;;;;;;-1.44;74.26;103686.09;107601;1251;108337;-64
2024/01/29 08:27:06;;;;;;;36.70;20.10;;;;;;;-1.35;73.26;103692.49;107515;1251;107855;-65
2024/01/29 08:29:34;;;;;;;36.70;20.30;;;;;;;-1.29;72.79;103697.30;107547;1251;97785;-64
2024/01/29 08:32:04;;;;;;;33.70;19.50;;;;;;;-1.27;72.84;103698.55;107587;1254;97950;-64
2024/01/29 08:34:32;;;;;;;40.00;20.70;;;;;;;-1.20;73.02;103701.59;107522;1251;111507;-63
2024/01/29 08:37:01;;;;;;;38.40;20.60;;;;;;;-1.08;72.83;103701.86;107599;1251;108889;-63
2024/01/29 08:39:30;;;;;;;36.00;19.70;;;;;;;-0.94;72.32;103706.02;107486;1254;108509;-64
2024/01/29 08:41:59;;;;;;;39.60;22.00;;;;;;;-0.79;71.12;103706.83;107520;1251;97950;-63
2024/01/29 08:44:27;;;;;;;44.80;20.00;;;;;;;-0.67;71.62;103709.54;107601;1250;97834;-65
2024/01/29 08:46:56;;;;;;;34.80;19.80;;;;;;;-0.51;71.74;103711.92;107047;1253;747811;-65
2024/01/29 08:49:24;;;;;;;35.00;20.00;;;;;;;-0.37;71.33;103710.06;107520;1251;107614;-67
2024/01/29 08:51:52;;;;;;;32.00;19.40;;;;;;;-0.22;71.36;103701.30;107464;1254;107350;-65
2024/01/29 08:54:21;;;;;;;37.20;19.50;;;;;;;-0.05;71.89;103698.89;107480;1251;97883;-65
2024/01/29 08:56:49;;;;;;;32.50;19.40;;;;;;;0.10;70.86;103702.81;107519;1251;98049;-65
2024/01/29 08:59:19;;;;;;;33.30;18.70;;;;;;;0.23;70.59;103701.96;107536;1250;110980;-64
2024/01/29 09:01:48;;;;;;;38.60;20.60;;;;;;;0.38;70.24;103707.98;107602;1251;107964;-66
2024/01/29 09:04:16;;;;;;;35.00;19.80;;;;;;;0.65;69.75;103712.08;107558;1251;107056;-65
2024/01/29 09:06:44;;;;;;;32.50;19.20;;;;;;;1.08;69.55;103707.29;107529;1251;97909;-65
2024/01/29 09:09:13;;;;;;;42.80;21.90;;;;;;;1.76;68.49;103697.19;107578;1251;97882;-64
2024/01/29 09:11:41;;;;;;;38.20;21.70;;;;;;;2.45;64.99;103690.23;107536;1251;111360;-64
2024/01/29 09:14:13;;;;;;;34.40;19.70;;;;;;;3.18;65.48;103684.63;107574;1251;106355;-64
2024/01/29 09:16:41;;;;;;;37.90;21.00;;;;;;;3.90;64.22;103686.42;107548;1251;107489;-64
2024/01/29 09:19:10;;;;;;;34.00;20.10;;;;;;;4.60;63.46;103684.13;107596;1251;97822;-64
2024/01/29 09:21:40;;;;;;;31.50;17.10;;;;;;;5.14;61.53;103683.56;107523;1251;98004;-65
2024/01/29 09:24:09;;;;;;;29.60;19.50;;;;;;;5.72;61.41;103682.59;107581;1251;111427;-66
2024/01/29 09:26:37;;;;;;;29.30;18.70;;;;;;;6.31;59.04;103676.83;107566;1250;107248;-65
2024/01/29 09:29:06;;;;;;;29.60;19.30;;;;;;;6.71;58.60;103672.98;107560;1251;106931;-65
2024/01/29 09:31:34;;;;;;;27.80;19.60;;;;;;;7.00;53.86;103668.16;107475;1253;97833;-65
2024/01/29 09:34:03;;;;;;;29.30;18.60;;;;;;;7.19;52.35;103662.09;107590;1251;98416;-66
2024/01/29 09:36:35;;;;;;;26.20;17.40;;;;;;;7.48;51.88;103657.54;107637;1251;111851;-64
2024/01/29 09:39:03;;;;;;;24.90;16.80;;;;;;;7.54;48.70;103655.21;107598;1250;108236;-64
2024/01/29 09:41:34;;;;;;;27.60;17.80;;;;;;;7.66;49.02;103646.11;107565;1254;108276;-64
2024/01/29 09:44:06;;;;;;;30.60;17.70;;;;;;;7.87;48.14;103641.73;107614;1251;97815;-64
2024/01/29 09:46:39;;;;;;;31.30;17.00;;;;;;;8.15;47.48;103644.58;107587;1251;98365;-64
2024/01/29 09:49:08;;;;;;;22.00;15.40;;;;;;;8.54;48.01;103643.66;107658;1251;111219;-64
2024/01/29 09:51:38;;;;;;;24.70;16.70;;;;;;;9.13;48.92;103640.55;107600;1251;107683;-63
2024/01/29 09:54:07;;;;;;;24.40;16.80;;;;;;;9.58;47.31;103639.42;107546;1254;108170;-65
2024/01/29 09:56:35;;;;;;;23.30;15.80;;;;;;;9.94;46.89;103630.69;107548;1250;97794;-65
2024/01/29 09:59:03;;;;;;;23.20;15.70;;;;;;;10.20;44.20;103619.91;107592;1251;97734;-65
2024/01/29 10:01:33;;;;;;;24.60;15.80;;;;;;;10.56;45.41;103623.52;107573;1251;112150;-66
2024/01/29 10:04:02;;;;;;;21.60;15.70;;;;;;;10.93;46.24;103629.21;107573;1250;108804;-66
2024/01/29 10:06:30;;;;;;;21.40;15.40;;;;;;;10.89;40.42;103629.05;107604;1251;108561;-65
2024/01/29 10:09:01;;;;;;;22.80;16.00;;;;;;;10.86;42.24;103629.92;107556;1250;97835;-66
2024/01/29 10:11:30;;;;;;;24.90;17.20;;;;;;;11.11;41.03;103628.27;107526;1254;97793;-65
2024/01/29 10:13:59;;;;;;;27.10;17.00;;;;;;;10.91;39.36;103625.38;107555;1253;111017;-65
2024/01/29 10:16:28;;;;;;;32.00;17.50;;;;;;;10.76;39.46;103619.23;107599;1250;107131;-65
2024/01/29 10:18:58;;;;;;;25.30;16.10;;;;;;;10.47;38.52;103624.40;107558;1251;107653;-65
2024/01/29 10:21:26;;;;;;;25.60;15.70;;;;;;;10.52;40.94;103621.51;107598;1250;97941;-64
2024/01/29 10:23:56;;;;;;;28.70;17.90;;;;;;;11.13;40.78;103619.23;107593;1251;97681;-64
2024/01/29 10:26:26;;;;;;;28.00;18.20;;;;;;;11.55;41.18;103625.88;107642;1250;111265;-64
2024/01/29 10:29:07;;;;;;;28.10;19.30;;;;;;;11.97;39.83;103628.23;107598;1251;108460;-64
2024/01/29 10:31:36;;;;;;;31.50;22.30;;;;;;;12.20;39.82;103620.13;107496;1251;108538;-65
2024/01/29 10:34:05;;;;;;;25.80;18.00;;;;;;;12.55;39.05;103628.41;107568;1251;97857;-65
2024/01/29 10:36:38;;;;;;;28.40;19.30;;;;;;;12.86;38.82;103626.46;107585;1251;97815;-64
2024/01/29 10:39:08;;;;;;;24.40;18.20;;;;;;;12.84;36.56;103627.48;107549;1251;112062;-65
2024/01/29 10:41:37;;;;;;;28.70;18.80;;;;;;;12.60;36.08;103633.76;107592;1251;107722;-65
2024/01/29 10:44:06;;;;;;;29.00;20.10;;;;;;;12.29;36.28;103632.23;107571;1254;107124;-66
2024/01/29 10:46:38;;;;;;;25.20;18.90;;;;;;;12.11;36.17;103630.45;107498;1250;97823;-66
2024/01/29 10:49:08;;;;;;;27.80;18.10;;;;;;;12.19;38.01;103626.81;107603;1251;97856;-64
2024/01/29 10:51:38;;;;;;;25.70;19.30;;;;;;;12.50;37.91;103627.95;107612;1254;110559;-64
2024/01/29 10:54:09;;;;;;;29.80;22.10;;;;;;;12.58;36.15;103626.60;107525;1251;107982;-65
2024/01/29 10:56:38;;;;;;;29.20;20.30;;;;;;;12.80;37.42;103621.87;107510;1251;108199;-64
2024/01/29 10:59:08;;;;;;;30.90;19.70;;;;;;;13.22;36.57;103623.98;107529;1251;97854;-65
2024/01/29 11:01:37;;;;;;;31.70;17.70;;;;;;;13.38;35.11;103624.80;107540;1251;97831;-64
2024/01/29 11:04:16;;;;;;;25.70;20.20;;;;;;;13.49;35.83;103618.77;107526;1251;111363;-65